Time,TemperatureF,DewpointF,PressureIn,WindDirection,WindDirectionDegrees,WindSpeedMPH,WindSpeedGustMPH,Humidity,HourlyPrecipIn,Conditions,Clouds,dailyrainin,SolarRadiationWatts/m^2,SoftwareType,DateUTC
2014-01-27 00:00:00,9.2,-1.5,30.18,NW,306,7.0,22.0,61,0.00,,,0.00,0.00,VWS V14.01,2014-01-27 06:00:00,
2014-01-27 00:06:00,8.4,-6.0,30.20,NW,319,21.0,28.0,51,0.00,,,0.00,0.00,VWS V14.01,2014-01-27 06:06:00,
2014-01-27 00:11:00,7.9,-6.9,30.21,WNW,285,4.0,22.0,50,0.00,,,0.00,0.00,VWS V14.01,2014-01-27 06:11:00,
2014-01-27 00:16:00,7.4,-7.3,30.21,NW,313,22.0,23.0,50,0.00,,,0.00,0.00,VWS V14.01,2014-01-27 06:16:00,
2014-01-27 00:21:00,6.9,-7.8,30.22,WNW,302,14.0,29.0,50,0.00,,,0.00,0.00,VWS V14.01,2014-01-27 06:21:00,
2014-01-27 00:26:00,6.1,-8.1,30.22,NW,311,10.0,21.0,51,0.00,,,0.00,0.00,VWS V14.01,2014-01-27 06:26:00,
2014-01-27 00:31:00,5.8,-8.4,30.22,NNW,342,9.0,26.0,51,0.00,,,0.00,0.00,VWS V14.01,2014-01-27 06:31:00,
2014-01-27 00:36:00,5.6,-8.2,30.23,West,273,9.0,20.0,52,0.00,,,0.00,0.00,VWS V14.01,2014-01-27 06:36:00,
2014-01-27 00:41:00,5.6,-7.8,30.23,WNW,293,13.0,18.0,53,0.00,,,0.00,0.00,VWS V14.01,2014-01-27 06:41:00,
2014-01-27 00:46:00,5.4,-7.6,30.24,NW,321,5.0,12.0,54,0.00,,,0.00,0.00,VWS V14.01,2014-01-27 06:46:00,
2014-01-27 00:51:00,5.2,-7.8,30.23,NNW,341,11.0,19.0,54,0.00,,,0.00,0.00,VWS V14.01,2014-01-27 06:51:00,
2014-01-27 00:56:00,5.0,-7.3,30.23,NW,315,8.0,20.0,56,0.00,,,0.00,0.00,VWS V14.01,2014-01-27 06:56:00,
2014-01-27 01:01:00,4.8,-7.4,30.24,WSW,252,6.0,13.0,56,0.00,,CLR,0.00,0.00,VWS V14.01,2014-01-27 07:01:00,
2014-01-27 01:06:00,4.8,-7.4,30.25,WNW,290,21.0,21.0,56,0.00,,CLR,0.00,0.00,VWS V14.01,2014-01-27 07:06:00,
2014-01-27 01:11:00,4.5,-7.7,30.24,West,270,5.0,25.0,56,0.00,,CLR,0.00,0.00,VWS V14.01,2014-01-27 07:11:00,
2014-01-27 01:16:00,4.5,-7.0,30.26,West,263,11.0,18.0,58,0.00,,CLR,0.00,0.00,VWS V14.01,2014-01-27 07:16:00,
2014-01-27 01:21:00,4.3,-7.2,30.26,WNW,288,11.0,24.0,58,0.00,,CLR,0.00,0.00,VWS V14.01,2014-01-27 07:21:00,
2014-01-27 01:26:00,4.3,-6.8,30.26,West,279,14.0,18.0,59,0.00,,CLR,0.00,0.00,VWS V14.01,2014-01-27 07:26:00,
2014-01-27 01:32:00,4.3,-6.5,30.27,WNW,283,3.0,9.0,60,0.00,,CLR,0.00,0.00,VWS V14.01,2014-01-27 07:32:00,
2014-01-27 01:37:00,4.3,-6.5,30.28,WSW,238,5.0,19.0,60,0.00,,CLR,0.00,0.00,VWS V14.01,2014-01-27 07:37:00,
2014-01-27 01:42:00,4.1,-7.4,30.30,SSW,211,6.0,16.0,58,0.00,,CLR,0.00,0.00,VWS V14.01,2014-01-27 07:42:00,
2014-01-27 01:47:00,3.5,-9.0,30.30,SW,232,3.0,18.0,55,0.00,,CLR,0.00,0.00,VWS V14.01,2014-01-27 07:47:00,
2014-01-27 01:52:00,3.2,-9.3,30.30,WNW,298,10.0,20.0,55,0.00,,CLR,0.00,0.00,VWS V14.01,2014-01-27 07:52:00,
2014-01-27 01:57:00,3.0,-9.5,30.31,WSW,247,20.0,20.0,55,0.00,,CLR,0.00,0.00,VWS V14.01,2014-01-27 07:57:00,
2014-01-27 02:02:00,3.0,-9.5,30.32,NW,309,7.0,15.0,55,0.00,,FEW014,0.00,0.00,VWS V14.01,2014-01-27 08:02:00,
2014-01-27 02:07:00,2.8,-9.7,30.32,WNW,295,26.0,26.0,55,0.00,,FEW014,0.00,0.00,VWS V14.01,2014-01-27 08:07:00,
2014-01-27 02:12:00,2.8,-9.7,30.33,West,265,14.0,23.0,55,0.00,,FEW014,0.00,0.00,VWS V14.01,2014-01-27 08:12:00,
2014-01-27 02:17:00,2.8,-9.7,30.33,WNW,295,16.0,21.0,55,0.00,,FEW014,0.00,0.00,VWS V14.01,2014-01-27 08:17:00,
2014-01-27 02:22:00,2.8,-9.3,30.33,NW,322,9.0,14.0,56,0.00,,FEW014,0.00,0.00,VWS V14.01,2014-01-27 08:22:00,
2014-01-27 02:27:00,2.8,-9.3,30.32,WNW,296,12.0,16.0,56,0.00,,FEW014,0.00,0.00,VWS V14.01,2014-01-27 08:27:00,
2014-01-27 02:32:00,2.8,-9.3,30.34,West,271,4.0,21.0,56,0.00,,FEW014,0.00,0.00,VWS V14.01,2014-01-27 08:32:00,
2014-01-27 02:37:00,2.8,-9.3,30.34,West,278,0.0,5.0,56,0.00,,FEW014,0.00,0.00,VWS V14.01,2014-01-27 08:37:00,
2014-01-27 02:42:00,2.8,-9.0,30.35,NNW,332,9.0,15.0,57,0.00,,FEW014,0.00,0.00,VWS V14.01,2014-01-27 08:42:00,
2014-01-27 02:47:00,2.8,-8.6,30.34,WNW,296,11.0,14.0,58,0.00,,FEW014,0.00,0.00,VWS V14.01,2014-01-27 08:47:00,
2014-01-27 02:52:00,2.8,-9.0,30.35,WNW,293,11.0,18.0,57,0.00,,FEW014,0.00,0.00,VWS V14.01,2014-01-27 08:52:00,
2014-01-27 02:57:00,2.8,-9.0,30.36,West,277,16.0,17.0,57,0.00,,FEW014,0.00,0.00,VWS V14.01,2014-01-27 08:57:00,
2014-01-27 03:03:00,2.6,-9.1,30.36,WNW,296,4.0,17.0,57,0.00,,CLR,0.00,0.00,VWS V14.01,2014-01-27 09:03:00,
2014-01-27 03:08:00,2.6,-9.1,30.36,NW,305,5.0,15.0,57,0.00,,CLR,0.00,0.00,VWS V14.01,2014-01-27 09:08:00,
2014-01-27 03:13:00,2.6,-9.1,30.37,WNW,289,12.0,13.0,57,0.00,,CLR,0.00,0.00,VWS V14.01,2014-01-27 09:13:00,
2014-01-27 03:18:00,2.6,-8.8,30.37,WNW,294,2.0,8.0,58,0.00,,CLR,0.00,0.00,VWS V14.01,2014-01-27 09:18:00,
2014-01-27 03:23:00,2.6,-8.4,30.38,West,263,9.0,15.0,59,0.00,,CLR,0.00,0.00,VWS V14.01,2014-01-27 09:23:00,
2014-01-27 03:28:00,2.6,-7.8,30.38,NNW,331,3.0,14.0,61,0.00,,CLR,0.00,0.00,VWS V14.01,2014-01-27 09:28:00,
2014-01-27 03:33:00,2.6,-7.4,30.38,WNW,297,9.0,9.0,62,0.00,,CLR,0.00,0.00,VWS V14.01,2014-01-27 09:33:00,
2014-01-27 03:38:00,2.6,-7.4,30.38,WSW,254,8.0,14.0,62,0.00,,CLR,0.00,0.00,VWS V14.01,2014-01-27 09:38:00,
2014-01-27 03:43:00,2.6,-7.8,30.38,WNW,283,9.0,11.0,61,0.00,,CLR,0.00,0.00,VWS V14.01,2014-01-27 09:43:00,
2014-01-27 03:48:00,2.4,-7.6,30.38,West,269,4.0,12.0,62,0.00,,CLR,0.00,0.00,VWS V14.01,2014-01-27 09:48:00,
2014-01-27 03:53:00,2.2,-8.5,30.39,West,281,6.0,8.0,60,0.00,,CLR,0.00,0.00,VWS V14.01,2014-01-27 09:53:00,
2014-01-27 03:58:00,1.8,-9.6,30.39,NW,304,13.0,22.0,58,0.00,,CLR,0.00,0.00,VWS V14.01,2014-01-27 09:58:00,
2014-01-27 04:03:00,1.7,-10.0,30.40,WNW,294,13.0,19.0,57,0.00,,BKN,0.00,0.00,VWS V14.01,2014-01-27 10:03:00,
2014-01-27 04:08:00,1.5,-10.2,30.40,West,272,14.0,14.0,57,0.00,,BKN,0.00,0.00,VWS V14.01,2014-01-27 10:08:00,
2014-01-27 04:13:00,1.3,-10.7,30.40,NW,312,9.0,17.0,56,0.00,,BKN,0.00,0.00,VWS V14.01,2014-01-27 10:13:00,
2014-01-27 04:18:00,1.3,-10.4,30.41,WNW,298,8.0,16.0,57,0.00,,BKN,0.00,0.00,VWS V14.01,2014-01-27 10:18:00,
2014-01-27 04:23:00,1.3,-10.0,30.41,WSW,254,5.0,9.0,58,0.00,,BKN,0.00,0.00,VWS V14.01,2014-01-27 10:23:00,
2014-01-27 04:28:00,1.3,-9.7,30.42,WSW,254,3.0,11.0,59,0.00,,BKN,0.00,0.00,VWS V14.01,2014-01-27 10:28:00,
2014-01-27 04:33:00,1.3,-9.0,30.42,West,270,16.0,16.0,61,0.00,,BKN,0.00,0.00,VWS V14.01,2014-01-27 10:33:00,
2014-01-27 04:38:00,1.3,-8.7,30.43,West,263,10.0,16.0,62,0.00,,BKN,0.00,0.00,VWS V14.01,2014-01-27 10:38:00,
2014-01-27 04:44:00,1.1,-10.2,30.42,NW,315,7.0,10.0,58,0.00,,BKN,0.00,0.00,VWS V14.01,2014-01-27 10:44:00,
2014-01-27 04:49:00,0.9,-10.8,30.42,SW,232,12.0,12.0,57,0.00,,BKN,0.00,0.00,VWS V14.01,2014-01-27 10:49:00,
2014-01-27 04:54:00,0.9,-10.8,30.42,NW,309,6.0,15.0,57,0.00,,BKN,0.00,0.00,VWS V14.01,2014-01-27 10:54:00,
2014-01-27 05:00:00,0.9,-10.4,30.43,WNW,294,6.0,8.0,58,0.00,,FEW014,0.00,0.00,VWS V14.01,2014-01-27 11:00:00,
2014-01-27 05:05:00,0.9,-10.1,30.44,SW,235,5.0,17.0,59,0.00,,FEW014,0.00,0.00,VWS V14.01,2014-01-27 11:05:00,
2014-01-27 05:10:00,0.9,-9.7,30.44,West,281,7.0,10.0,60,0.00,,FEW014,0.00,0.00,VWS V14.01,2014-01-27 11:10:00,
2014-01-27 05:15:00,0.9,-9.1,30.45,WSW,246,10.0,13.0,62,0.00,,FEW014,0.00,0.00,VWS V14.01,2014-01-27 11:15:00,
2014-01-27 05:20:00,0.9,-9.1,30.45,WSW,254,4.0,12.0,62,0.00,,FEW014,0.00,0.00,VWS V14.01,2014-01-27 11:20:00,
2014-01-27 05:25:00,0.9,-9.1,30.45,WNW,283,5.0,6.0,62,0.00,,FEW014,0.00,0.00,VWS V14.01,2014-01-27 11:25:00,
2014-01-27 05:30:00,0.7,-9.6,30.46,West,263,9.0,9.0,61,0.00,,FEW014,0.00,0.00,VWS V14.01,2014-01-27 11:30:00,
2014-01-27 05:36:00,0.5,-9.8,30.47,West,266,8.0,8.0,61,0.00,,FEW014,0.00,0.00,VWS V14.01,2014-01-27 11:36:00,
2014-01-27 05:41:00,0.5,-10.1,30.47,NW,321,4.0,12.0,60,0.00,,FEW014,0.00,0.00,VWS V14.01,2014-01-27 11:41:00,
2014-01-27 05:47:00,0.5,-10.4,30.47,WNW,289,2.0,11.0,59,0.00,,FEW014,0.00,0.00,VWS V14.01,2014-01-27 11:47:00,
2014-01-27 05:53:00,0.5,-10.1,30.48,West,269,5.0,10.0,60,0.00,,FEW014,0.00,0.00,VWS V14.01,2014-01-27 11:53:00,
2014-01-27 05:58:00,0.5,-10.1,30.48,SW,232,6.0,9.0,60,0.00,,FEW014,0.00,0.00,VWS V14.01,2014-01-27 11:58:00,
2014-01-27 06:04:00,0.5,-9.8,30.48,West,260,3.0,17.0,61,0.00,,SCT015,0.00,0.00,VWS V14.01,2014-01-27 12:04:00,
2014-01-27 06:10:00,0.5,-9.8,30.49,West,259,7.0,10.0,61,0.00,,SCT015,0.00,0.00,VWS V14.01,2014-01-27 12:10:00,
2014-01-27 06:15:00,0.5,-9.8,30.49,WSW,243,4.0,14.0,61,0.00,,SCT015,0.00,0.00,VWS V14.01,2014-01-27 12:15:00,
2014-01-27 06:20:00,0.5,-10.1,30.49,West,262,6.0,12.0,60,0.00,,SCT015,0.00,0.00,VWS V14.01,2014-01-27 12:20:00,
2014-01-27 06:25:00,0.3,-10.3,30.49,WSW,258,4.0,14.0,60,0.00,,SCT015,0.00,0.00,VWS V14.01,2014-01-27 12:25:00,
2014-01-27 06:31:00,0.3,-10.3,30.49,WSW,257,8.0,15.0,60,0.00,,SCT015,0.00,0.00,VWS V14.01,2014-01-27 12:31:00,
2014-01-27 06:37:00,0.5,-9.8,30.50,West,261,12.0,12.0,61,0.00,,SCT015,0.00,0.00,VWS V14.01,2014-01-27 12:37:00,
2014-01-27 06:43:00,0.3,-10.3,30.50,WSW,251,12.0,17.0,60,0.00,,SCT015,0.00,0.00,VWS V14.01,2014-01-27 12:43:00,
2014-01-27 06:48:00,0.3,-10.6,30.50,West,281,3.0,6.0,59,0.00,,SCT015,0.00,0.00,VWS V14.01,2014-01-27 12:48:00,
2014-01-27 06:54:00,0.3,-10.3,30.51,WSW,257,7.0,10.0,60,0.00,,SCT015,0.00,0.00,VWS V14.01,2014-01-27 12:54:00,
2014-01-27 06:59:00,0.1,-10.5,30.51,West,271,11.0,15.0,60,0.00,,SCT015,0.00,0.00,VWS V14.01,2014-01-27 12:59:00,
2014-01-27 07:04:00,0.1,-10.5,30.51,West,263,7.0,10.0,60,0.00,,FEW016,0.00,0.00,VWS V14.01,2014-01-27 13:04:00,
2014-01-27 07:09:00,0.1,-10.5,30.52,West,261,7.0,13.0,60,0.00,,FEW016,0.00,0.00,VWS V14.01,2014-01-27 13:09:00,
2014-01-27 07:15:00,0.1,-10.5,30.52,WNW,296,2.0,5.0,60,0.00,,FEW016,0.00,7.00,VWS V14.01,2014-01-27 13:15:00,
2014-01-27 07:20:00,0.1,-10.5,30.52,WNW,284,3.0,10.0,60,0.00,,FEW016,0.00,14.00,VWS V14.01,2014-01-27 13:20:00,
2014-01-27 07:25:00,0.1,-10.1,30.52,WSW,249,3.0,10.0,61,0.00,,FEW016,0.00,21.00,VWS V14.01,2014-01-27 13:25:00,
2014-01-27 07:30:00,0.1,-9.8,30.53,WNW,286,6.0,16.0,62,0.00,,FEW016,0.00,25.00,VWS V14.01,2014-01-27 13:30:00,
2014-01-27 07:36:00,0.1,-9.3,30.54,SW,218,5.0,9.0,64,0.00,,FEW016,0.00,32.00,VWS V14.01,2014-01-27 13:36:00,
2014-01-27 07:41:00,0.1,-9.0,30.54,West,275,4.0,10.0,65,0.00,,FEW016,0.00,44.00,VWS V14.01,2014-01-27 13:41:00,
2014-01-27 07:46:00,0.1,-9.2,30.55,West,274,5.0,17.0,64,0.00,,FEW016,0.00,40.00,VWS V14.01,2014-01-27 13:46:00,
2014-01-27 07:51:00,0.1,-9.9,30.55,SSW,210,8.0,8.0,62,0.00,,FEW016,0.00,42.00,VWS V14.01,2014-01-27 13:51:00,
2014-01-27 07:56:00,0.1,-10.9,30.56,West,276,10.0,12.0,59,0.00,,FEW016,0.00,120.00,VWS V14.01,2014-01-27 13:56:00,
2014-01-27 08:01:00,0.1,-11.3,30.56,WNW,288,6.0,14.0,58,0.00,,,0.00,84.00,VWS V14.01,2014-01-27 14:01:00,
2014-01-27 08:06:00,0.1,-11.3,30.56,WNW,295,4.0,5.0,58,0.00,,,0.00,93.00,VWS V14.01,2014-01-27 14:06:00,
2014-01-27 08:11:00,0.1,-11.5,30.56,NNW,331,6.0,12.0,57,0.00,,,0.00,127.00,VWS V14.01,2014-01-27 14:11:00,
2014-01-27 08:16:00,0.3,-11.7,30.56,WNW,288,4.0,12.0,56,0.00,,,0.00,149.00,VWS V14.01,2014-01-27 14:16:00,
2014-01-27 08:22:00,0.5,-11.5,30.57,West,273,6.0,13.0,56,0.00,,,0.00,188.00,VWS V14.01,2014-01-27 14:22:00,
2014-01-27 08:28:00,0.5,-11.1,30.57,WSW,256,8.0,12.0,57,0.00,,,0.00,174.00,VWS V14.01,2014-01-27 14:28:00,
2014-01-27 08:33:00,0.7,-10.9,30.57,West,271,3.0,7.0,57,0.00,,,0.00,190.00,VWS V14.01,2014-01-27 14:33:00,
2014-01-27 08:38:00,0.7,-11.3,30.57,WNW,290,2.0,17.0,56,0.00,,,0.00,111.00,VWS V14.01,2014-01-27 14:38:00,
2014-01-27 08:44:00,0.5,-11.1,30.58,WNW,294,9.0,15.0,57,0.00,,,0.00,232.00,VWS V14.01,2014-01-27 14:44:00,
2014-01-27 08:49:00,0.7,-10.2,30.58,West,266,15.0,18.0,59,0.00,,,0.00,121.00,VWS V14.01,2014-01-27 14:49:00,
2014-01-27 08:55:00,0.7,-9.2,30.58,WNW,288,8.0,12.0,62,0.00,,,0.00,60.00,VWS V14.01,2014-01-27 14:55:00,
2014-01-27 09:01:00,0.5,-9.4,30.58,WNW,292,7.0,12.0,62,0.00,,FEW019,0.00,123.00,VWS V14.01,2014-01-27 15:01:00,
2014-01-27 09:06:00,0.7,-9.9,30.59,WNW,300,9.0,12.0,60,0.00,,FEW019,0.00,200.00,VWS V14.01,2014-01-27 15:06:00,
2014-01-27 09:11:00,1.1,-10.2,30.59,WNW,300,14.0,14.0,58,0.00,,FEW019,0.00,255.00,VWS V14.01,2014-01-27 15:11:00,
2014-01-27 09:17:00,1.1,-10.6,30.59,NW,310,8.0,14.0,57,0.00,,FEW019,0.00,190.00,VWS V14.01,2014-01-27 15:17:00,
2014-01-27 09:22:00,1.3,-10.0,30.59,WNW,282,7.0,12.0,58,0.00,,FEW019,0.00,243.00,VWS V14.01,2014-01-27 15:22:00,
2014-01-27 09:27:00,0.9,-10.1,30.59,West,261,12.0,15.0,59,0.00,,FEW019,0.00,151.00,VWS V14.01,2014-01-27 15:27:00,
2014-01-27 09:32:00,0.7,-9.9,30.60,WSW,254,4.0,10.0,60,0.00,,FEW019,0.00,355.00,VWS V14.01,2014-01-27 15:32:00,
2014-01-27 09:38:00,0.7,-10.6,30.60,NW,309,3.0,13.0,58,0.00,,FEW019,0.00,327.00,VWS V14.01,2014-01-27 15:38:00,
2014-01-27 09:44:00,1.1,-11.7,30.61,WNW,302,13.0,15.0,54,0.00,,FEW019,0.00,424.00,VWS V14.01,2014-01-27 15:44:00,
2014-01-27 09:49:00,1.1,-12.0,30.61,WNW,297,9.0,10.0,53,0.00,,FEW019,0.00,401.00,VWS V14.01,2014-01-27 15:49:00,
2014-01-27 09:54:00,1.5,-11.7,30.61,West,279,3.0,7.0,53,0.00,,FEW019,0.00,88.00,VWS V14.01,2014-01-27 15:54:00,
2014-01-27 09:59:00,1.7,-11.9,30.62,WNW,286,4.0,15.0,52,0.00,,FEW019,0.00,83.00,VWS V14.01,2014-01-27 15:59:00,
2014-01-27 10:04:00,1.7,-11.9,30.62,West,279,10.0,18.0,52,0.00,,BKN019,0.00,93.00,VWS V14.01,2014-01-27 16:04:00,
2014-01-27 10:09:00,1.8,-11.4,30.62,NW,313,3.0,10.0,53,0.00,,BKN019,0.00,230.00,VWS V14.01,2014-01-27 16:09:00,
2014-01-27 10:15:00,1.5,-10.9,30.63,WSW,252,8.0,17.0,55,0.00,,BKN019,0.00,387.00,VWS V14.01,2014-01-27 16:15:00,
2014-01-27 10:20:00,1.5,-10.6,30.63,WSW,240,5.0,16.0,56,0.00,,BKN019,0.00,323.00,VWS V14.01,2014-01-27 16:20:00,
2014-01-27 10:25:00,1.5,-10.2,30.64,WSW,239,5.0,12.0,57,0.00,,BKN019,0.00,274.00,VWS V14.01,2014-01-27 16:25:00,
2014-01-27 10:30:00,1.8,-10.3,30.64,West,271,7.0,7.0,56,0.00,,BKN019,0.00,264.00,VWS V14.01,2014-01-27 16:30:00,
2014-01-27 10:36:00,1.8,-11.0,30.64,SW,222,5.0,9.0,54,0.00,,BKN019,0.00,399.00,VWS V14.01,2014-01-27 16:36:00,
2014-01-27 10:41:00,2.2,-11.0,30.64,West,259,15.0,15.0,53,0.00,,BKN019,0.00,492.00,VWS V14.01,2014-01-27 16:41:00,
2014-01-27 10:47:00,2.2,-11.4,30.64,WSW,257,4.0,11.0,52,0.00,,BKN019,0.00,482.00,VWS V14.01,2014-01-27 16:47:00,
2014-01-27 10:52:00,2.8,-11.2,30.65,West,275,5.0,14.0,51,0.00,,BKN019,0.00,536.00,VWS V14.01,2014-01-27 16:52:00,
2014-01-27 10:57:00,2.8,-10.8,30.65,WSW,244,6.0,12.0,52,0.00,,BKN019,0.00,390.00,VWS V14.01,2014-01-27 16:57:00,
2014-01-27 11:03:00,2.8,-10.4,30.65,West,269,10.0,10.0,53,0.00,,SCT019,0.00,388.00,VWS V14.01,2014-01-27 17:03:00,
2014-01-27 11:08:00,2.4,-10.4,30.65,West,275,7.0,12.0,54,0.00,,SCT019,0.00,388.00,VWS V14.01,2014-01-27 17:08:00,
2014-01-27 11:14:00,2.6,-9.9,30.65,NW,306,7.0,12.0,55,0.00,,SCT019,0.00,265.00,VWS V14.01,2014-01-27 17:14:00,
2014-01-27 11:20:00,2.6,-9.9,30.65,NNW,338,7.0,10.0,55,0.00,,SCT019,0.00,568.00,VWS V14.01,2014-01-27 17:20:00,
2014-01-27 11:25:00,3.2,-9.7,30.66,WNW,294,6.0,9.0,54,0.00,,SCT019,0.00,608.00,VWS V14.01,2014-01-27 17:25:00,
2014-01-27 11:30:00,3.7,-10.8,30.66,NW,314,12.0,16.0,50,0.00,,SCT019,0.00,487.00,VWS V14.01,2014-01-27 17:30:00,
2014-01-27 11:36:00,3.7,-10.8,30.66,WNW,296,7.0,11.0,50,0.00,,SCT019,0.00,480.00,VWS V14.01,2014-01-27 17:36:00,
2014-01-27 11:41:00,3.9,-10.2,30.66,WSW,254,5.0,15.0,51,0.00,,SCT019,0.00,466.00,VWS V14.01,2014-01-27 17:41:00,
2014-01-27 11:47:00,3.9,-11.0,30.66,WNW,298,11.0,11.0,49,0.00,,SCT019,0.00,628.00,VWS V14.01,2014-01-27 17:47:00,
2014-01-27 11:52:00,3.7,-11.2,30.66,SSW,211,3.0,12.0,49,0.00,,SCT019,0.00,366.00,VWS V14.01,2014-01-27 17:52:00,
2014-01-27 11:57:00,3.5,-10.6,30.66,WNW,295,5.0,12.0,51,0.00,,SCT019,0.00,438.00,VWS V14.01,2014-01-27 17:57:00,
2014-01-27 12:03:00,3.4,-11.9,30.66,West,267,8.0,16.0,48,0.00,,SCT019,0.00,654.00,VWS V14.01,2014-01-27 18:03:00,
2014-01-27 12:08:00,3.9,-10.6,30.65,West,277,3.0,5.0,50,0.00,,SCT019,0.00,341.00,VWS V14.01,2014-01-27 18:08:00,
2014-01-27 12:14:00,4.3,-10.2,30.65,NW,309,4.0,11.0,50,0.00,,SCT019,0.00,343.00,VWS V14.01,2014-01-27 18:14:00,
2014-01-27 12:19:00,4.1,-10.4,30.65,West,265,16.0,16.0,50,0.00,,SCT019,0.00,679.00,VWS V14.01,2014-01-27 18:19:00,
2014-01-27 12:25:00,3.9,-11.4,30.66,NW,310,9.0,10.0,48,0.00,,SCT019,0.00,385.00,VWS V14.01,2014-01-27 18:25:00,
2014-01-27 12:30:00,4.3,-10.6,30.65,NW,308,15.0,15.0,49,0.00,,SCT019,0.00,464.00,VWS V14.01,2014-01-27 18:30:00,
2014-01-27 12:36:00,4.1,-10.8,30.65,WNW,292,5.0,17.0,49,0.00,,SCT019,0.00,292.00,VWS V14.01,2014-01-27 18:36:00,
2014-01-27 12:41:00,4.1,-10.4,30.65,WNW,292,3.0,6.0,50,0.00,,SCT019,0.00,281.00,VWS V14.01,2014-01-27 18:41:00,
2014-01-27 12:46:00,4.3,-10.6,30.65,NW,322,12.0,17.0,49,0.00,,SCT019,0.00,599.00,VWS V14.01,2014-01-27 18:46:00,
2014-01-27 12:52:00,4.5,-11.7,30.65,NW,306,10.0,16.0,46,0.00,,SCT019,0.00,552.00,VWS V14.01,2014-01-27 18:52:00,
2014-01-27 12:57:00,4.3,-11.0,30.65,NW,309,9.0,13.0,48,0.00,,SCT019,0.00,332.00,VWS V14.01,2014-01-27 18:57:00,
2014-01-27 13:02:00,4.3,-11.0,30.65,WNW,298,13.0,13.0,48,0.00,,,0.00,306.00,VWS V14.01,2014-01-27 19:02:00,
2014-01-27 13:07:00,4.5,-10.4,30.65,NW,306,11.0,15.0,49,0.00,,,0.00,445.00,VWS V14.01,2014-01-27 19:07:00,
2014-01-27 13:13:00,4.5,-10.0,30.65,West,270,6.0,7.0,50,0.00,,,0.00,327.00,VWS V14.01,2014-01-27 19:13:00,
2014-01-27 13:18:00,4.5,-10.0,30.65,WNW,286,4.0,10.0,50,0.00,,,0.00,330.00,VWS V14.01,2014-01-27 19:18:00,
2014-01-27 13:23:00,4.7,-9.1,30.65,West,259,5.0,15.0,52,0.00,,,0.00,387.00,VWS V14.01,2014-01-27 19:23:00,
2014-01-27 13:28:00,4.8,-8.2,30.66,WNW,292,7.0,12.0,54,0.00,,,0.00,608.00,VWS V14.01,2014-01-27 19:28:00,
2014-01-27 13:33:00,4.8,-9.0,30.66,West,273,7.0,13.0,52,0.00,,,0.00,517.00,VWS V14.01,2014-01-27 19:33:00,
2014-01-27 13:39:00,4.5,-9.2,30.67,West,275,12.0,12.0,52,0.00,,,0.00,267.00,VWS V14.01,2014-01-27 19:39:00,
2014-01-27 13:45:00,4.3,-9.4,30.67,WNW,301,5.0,15.0,52,0.00,,,0.00,360.00,VWS V14.01,2014-01-27 19:45:00,
2014-01-27 13:51:00,4.5,-10.4,30.67,WSW,237,14.0,14.0,49,0.00,,,0.00,299.00,VWS V14.01,2014-01-27 19:51:00,
2014-01-27 13:56:00,4.3,-10.6,30.67,WNW,294,11.0,15.0,49,0.00,,,0.00,288.00,VWS V14.01,2014-01-27 19:56:00,
2014-01-27 14:02:00,4.1,-11.2,30.67,NW,304,9.0,19.0,48,0.00,,SCT030,0.00,302.00,VWS V14.01,2014-01-27 20:02:00,
2014-01-27 14:07:00,4.3,-11.9,30.67,WNW,298,12.0,18.0,46,0.00,,SCT030,0.00,241.00,VWS V14.01,2014-01-27 20:07:00,
2014-01-27 14:13:00,3.9,-12.3,30.68,WNW,294,4.0,17.0,46,0.00,,SCT030,0.00,260.00,VWS V14.01,2014-01-27 20:13:00,
2014-01-27 14:18:00,3.9,-10.6,30.68,WNW,293,6.0,19.0,50,0.00,,SCT030,0.00,258.00,VWS V14.01,2014-01-27 20:18:00,
2014-01-27 14:23:00,4.1,-12.1,30.68,NW,310,4.0,15.0,46,0.00,,SCT030,0.00,396.00,VWS V14.01,2014-01-27 20:23:00,
2014-01-27 14:26:00,4.1,-12.1,30.68,West,272,9.0,16.0,46,0.00,,SCT030,0.00,260.00,VWS V14.01,2014-01-27 20:26:00,
2014-01-27 14:32:00,4.3,-11.5,30.68,West,273,9.0,16.0,47,0.00,,SCT030,0.00,202.00,VWS V14.01,2014-01-27 20:32:00,
2014-01-27 14:37:00,4.1,-10.8,30.68,WNW,288,9.0,10.0,49,0.00,,SCT030,0.00,283.00,VWS V14.01,2014-01-27 20:37:00,
2014-01-27 14:43:00,4.3,-11.0,30.69,SW,230,10.0,19.0,48,0.00,,SCT030,0.00,336.00,VWS V14.01,2014-01-27 20:43:00,
2014-01-27 14:48:00,4.5,-10.0,30.69,West,279,6.0,8.0,50,0.00,,SCT030,0.00,292.00,VWS V14.01,2014-01-27 20:48:00,
2014-01-27 14:53:00,4.7,-10.7,30.70,West,277,5.0,18.0,48,0.00,,SCT030,0.00,267.00,VWS V14.01,2014-01-27 20:53:00,
2014-01-27 14:59:00,3.7,-12.0,30.70,NNW,339,8.0,19.0,47,0.00,,SCT030,0.00,142.00,VWS V14.01,2014-01-27 20:59:00,
2014-01-27 15:04:00,3.4,-13.6,30.71,WNW,282,15.0,23.0,44,0.00,,SCT033,0.00,302.00,VWS V14.01,2014-01-27 21:04:00,
2014-01-27 15:10:00,3.2,-14.2,30.72,West,265,9.0,11.0,43,0.00,,SCT033,0.00,269.00,VWS V14.01,2014-01-27 21:10:00,
2014-01-27 15:15:00,2.8,-15.1,30.73,WNW,283,3.0,15.0,42,0.00,,SCT033,0.00,216.00,VWS V14.01,2014-01-27 21:15:00,
2014-01-27 15:21:00,3.0,-14.4,30.73,West,259,10.0,18.0,43,0.00,,SCT033,0.00,288.00,VWS V14.01,2014-01-27 21:21:00,
2014-01-27 15:26:00,3.0,-14.0,30.73,WNW,286,1.0,12.0,44,0.00,,SCT033,0.00,285.00,VWS V14.01,2014-01-27 21:26:00,
2014-01-27 15:31:00,2.8,-14.6,30.74,WNW,302,3.0,15.0,43,0.00,,SCT033,0.00,246.00,VWS V14.01,2014-01-27 21:31:00,
2014-01-27 15:36:00,2.8,-14.2,30.74,West,277,6.0,10.0,44,0.00,,SCT033,0.00,229.00,VWS V14.01,2014-01-27 21:36:00,
2014-01-27 15:42:00,2.8,-13.7,30.75,WNW,289,6.0,10.0,45,0.00,,SCT033,0.00,199.00,VWS V14.01,2014-01-27 21:42:00,
2014-01-27 15:47:00,2.6,-13.5,30.75,WNW,284,3.0,4.0,46,0.00,,SCT033,0.00,144.00,VWS V14.01,2014-01-27 21:47:00,
2014-01-27 15:53:00,2.8,-13.3,30.75,WNW,288,5.0,18.0,46,0.00,,SCT033,0.00,199.00,VWS V14.01,2014-01-27 21:53:00,
2014-01-27 15:59:00,2.8,-13.3,30.75,NW,305,6.0,14.0,46,0.00,,SCT033,0.00,107.00,VWS V14.01,2014-01-27 21:59:00,
2014-01-27 16:04:00,2.6,-13.0,30.76,NW,320,14.0,17.0,47,0.00,,CLR,0.00,74.00,VWS V14.01,2014-01-27 22:04:00,
2014-01-27 16:10:00,2.4,-12.4,30.76,NNW,338,4.0,15.0,49,0.00,,CLR,0.00,60.00,VWS V14.01,2014-01-27 22:10:00,
2014-01-27 16:16:00,2.2,-13.0,30.76,WNW,295,8.0,16.0,48,0.00,,CLR,0.00,42.00,VWS V14.01,2014-01-27 22:16:00,
2014-01-27 16:21:00,2.0,-14.0,30.77,WNW,298,9.0,10.0,46,0.00,,CLR,0.00,30.00,VWS V14.01,2014-01-27 22:21:00,
2014-01-27 16:26:00,2.0,-14.4,30.77,NW,305,11.0,13.0,45,0.00,,CLR,0.00,25.00,VWS V14.01,2014-01-27 22:26:00,
2014-01-27 16:31:00,1.7,-15.2,30.77,NW,321,17.0,17.0,44,0.00,,CLR,0.00,19.00,VWS V14.01,2014-01-27 22:31:00,
2014-01-27 16:36:00,1.5,-16.3,30.77,WNW,282,6.0,10.0,42,0.00,,CLR,0.00,18.00,VWS V14.01,2014-01-27 22:36:00,
2014-01-27 16:42:00,1.3,-16.0,30.77,WNW,284,8.0,13.0,43,0.00,,CLR,0.00,16.00,VWS V14.01,2014-01-27 22:42:00,
2014-01-27 16:47:00,1.1,-16.2,30.77,WNW,291,4.0,8.0,43,0.00,,CLR,0.00,14.00,VWS V14.01,2014-01-27 22:47:00,
2014-01-27 16:52:00,1.1,-15.7,30.77,WNW,297,13.0,14.0,44,0.00,,CLR,0.00,12.00,VWS V14.01,2014-01-27 22:52:00,
2014-01-27 16:57:00,0.9,-15.5,30.77,NW,309,6.0,11.0,45,0.00,,CLR,0.00,9.00,VWS V14.01,2014-01-27 22:57:00,
2014-01-27 17:02:00,0.9,-15.0,30.77,WNW,292,3.0,9.0,46,0.00,,FEW025,0.00,7.00,VWS V14.01,2014-01-27 23:02:00,
2014-01-27 17:07:00,0.7,-16.1,30.78,West,273,8.0,14.0,44,0.00,,FEW025,0.00,0.00,VWS V14.01,2014-01-27 23:07:00,
2014-01-27 17:12:00,0.5,-15.8,30.79,WNW,294,4.0,12.0,45,0.00,,FEW025,0.00,0.00,VWS V14.01,2014-01-27 23:12:00,
2014-01-27 17:18:00,0.3,-16.0,30.79,West,262,4.0,11.0,45,0.00,,FEW025,0.00,0.00,VWS V14.01,2014-01-27 23:18:00,
2014-01-27 17:24:00,0.1,-16.2,30.80,WNW,293,4.0,11.0,45,0.00,,FEW025,0.00,0.00,VWS V14.01,2014-01-27 23:24:00,
2014-01-27 17:30:00,0.1,-16.3,30.80,WNW,300,4.0,9.0,45,0.00,,FEW025,0.00,0.00,VWS V14.01,2014-01-27 23:30:00,
2014-01-27 17:35:00,0.1,-15.9,30.80,WNW,294,2.0,10.0,46,0.00,,FEW025,0.00,0.00,VWS V14.01,2014-01-27 23:35:00,
2014-01-27 17:41:00,-0.2,-16.0,30.81,NW,315,5.0,13.0,46,0.00,,FEW025,0.00,0.00,VWS V14.01,2014-01-27 23:41:00,
2014-01-27 17:46:00,-0.2,-15.6,30.81,WNW,303,4.0,4.0,47,0.00,,FEW025,0.00,0.00,VWS V14.01,2014-01-27 23:46:00,
2014-01-27 17:51:00,-0.2,-15.2,30.81,WNW,286,5.0,7.0,48,0.00,,FEW025,0.00,0.00,VWS V14.01,2014-01-27 23:51:00,
2014-01-27 17:57:00,-0.4,-15.4,30.81,WNW,298,7.0,12.0,48,0.00,,FEW025,0.00,0.00,VWS V14.01,2014-01-27 23:57:00,
2014-01-27 18:03:00,-0.4,-15.4,30.81,WNW,294,0.0,5.0,48,0.00,,CLR,0.00,0.00,VWS V14.01,2014-01-28 00:03:00,
2014-01-27 18:09:00,-0.4,-15.0,30.81,WNW,286,1.0,6.0,49,0.00,,CLR,0.00,0.00,VWS V14.01,2014-01-28 00:09:00,
2014-01-27 18:14:00,-0.4,-15.0,30.81,WNW,299,7.0,8.0,49,0.00,,CLR,0.00,0.00,VWS V14.01,2014-01-28 00:14:00,
2014-01-27 18:19:00,-0.4,-14.6,30.81,West,276,6.0,6.0,50,0.00,,CLR,0.00,0.00,VWS V14.01,2014-01-28 00:19:00,
2014-01-27 18:25:00,-0.4,-14.6,30.82,West,275,3.0,8.0,50,0.00,,CLR,0.00,0.00,VWS V14.01,2014-01-28 00:25:00,
2014-01-27 18:31:00,-0.4,-13.8,30.82,West,264,6.0,10.0,52,0.00,,CLR,0.00,0.00,VWS V14.01,2014-01-28 00:31:00,
2014-01-27 18:36:00,-0.2,-13.6,30.83,WNW,298,4.0,9.0,52,0.00,,CLR,0.00,0.00,VWS V14.01,2014-01-28 00:36:00,
2014-01-27 18:41:00,-0.2,-14.4,30.83,WNW,298,5.0,7.0,50,0.00,,CLR,0.00,0.00,VWS V14.01,2014-01-28 00:41:00,
2014-01-27 18:46:00,-0.4,-15.0,30.83,WNW,293,8.0,10.0,49,0.00,,CLR,0.00,0.00,VWS V14.01,2014-01-28 00:46:00,
2014-01-27 18:51:00,-0.4,-15.0,30.84,NW,309,1.0,6.0,49,0.00,,CLR,0.00,0.00,VWS V14.01,2014-01-28 00:51:00,
2014-01-27 18:56:00,-0.6,-14.8,30.84,NW,309,4.0,5.0,50,0.00,,CLR,0.00,0.00,VWS V14.01,2014-01-28 00:56:00,
2014-01-27 19:01:00,-0.6,-14.8,30.84,WNW,290,5.0,6.0,50,0.00,,CLR,0.00,0.00,VWS V14.01,2014-01-28 01:01:00,
2014-01-27 19:06:00,-0.6,-14.8,30.85,WNW,294,5.0,10.0,50,0.00,,CLR,0.00,0.00,VWS V14.01,2014-01-28 01:06:00,
2014-01-27 19:11:00,-0.8,-15.0,30.84,NW,319,3.0,10.0,50,0.00,,CLR,0.00,0.00,VWS V14.01,2014-01-28 01:11:00,
2014-01-27 19:17:00,-0.8,-15.0,30.85,WNW,301,5.0,7.0,50,0.00,,CLR,0.00,0.00,VWS V14.01,2014-01-28 01:17:00,
2014-01-27 19:23:00,-0.8,-14.6,30.85,WNW,298,7.0,8.0,51,0.00,,CLR,0.00,0.00,VWS V14.01,2014-01-28 01:23:00,
2014-01-27 19:28:00,-0.8,-14.2,30.85,WNW,294,2.0,5.0,52,0.00,,CLR,0.00,0.00,VWS V14.01,2014-01-28 01:28:00,
2014-01-27 19:34:00,-1.0,-14.0,30.85,WNW,294,3.0,6.0,53,0.00,,CLR,0.00,0.00,VWS V14.01,2014-01-28 01:34:00,
2014-01-27 19:39:00,-1.0,-14.0,30.85,WNW,295,3.0,7.0,53,0.00,,CLR,0.00,0.00,VWS V14.01,2014-01-28 01:39:00,
2014-01-27 19:44:00,-1.0,-13.6,30.85,WNW,294,4.0,7.0,54,0.00,,CLR,0.00,0.00,VWS V14.01,2014-01-28 01:44:00,
2014-01-27 19:50:00,-1.0,-13.6,30.85,WNW,292,3.0,7.0,54,0.00,,CLR,0.00,0.00,VWS V14.01,2014-01-28 01:50:00,
2014-01-27 19:55:00,-1.0,-13.6,30.85,WNW,291,4.0,6.0,54,0.00,,CLR,0.00,0.00,VWS V14.01,2014-01-28 01:55:00,
2014-01-27 20:01:00,-1.2,-13.4,30.86,WNW,291,6.0,6.0,55,0.00,,CLR,0.00,0.00,VWS V14.01,2014-01-28 02:01:00,
2014-01-27 20:06:00,-1.2,-13.4,30.86,WNW,303,7.0,7.0,55,0.00,,CLR,0.00,0.00,VWS V14.01,2014-01-28 02:06:00,
2014-01-27 20:11:00,-1.2,-13.4,30.86,West,267,7.0,8.0,55,0.00,,CLR,0.00,0.00,VWS V14.01,2014-01-28 02:11:00,
2014-01-27 20:17:00,-1.2,-13.4,30.87,West,281,2.0,5.0,55,0.00,,CLR,0.00,0.00,VWS V14.01,2014-01-28 02:17:00,
2014-01-27 20:22:00,-1.2,-13.4,30.87,WNW,285,3.0,6.0,55,0.00,,CLR,0.00,0.00,VWS V14.01,2014-01-28 02:22:00,
2014-01-27 20:27:00,-1.2,-13.8,30.87,NW,304,8.0,11.0,54,0.00,,CLR,0.00,0.00,VWS V14.01,2014-01-28 02:27:00,
2014-01-27 20:32:00,-1.2,-13.8,30.87,NW,306,3.0,8.0,54,0.00,,CLR,0.00,0.00,VWS V14.01,2014-01-28 02:32:00,
2014-01-27 20:37:00,-1.2,-13.8,30.87,WNW,297,0.0,6.0,54,0.00,,CLR,0.00,0.00,VWS V14.01,2014-01-28 02:37:00,
2014-01-27 20:43:00,-1.2,-13.4,30.87,WNW,294,4.0,6.0,55,0.00,,CLR,0.00,0.00,VWS V14.01,2014-01-28 02:43:00,
2014-01-27 20:48:00,-1.4,-13.6,30.87,WNW,294,8.0,8.0,55,0.00,,CLR,0.00,0.00,VWS V14.01,2014-01-28 02:48:00,
2014-01-27 20:53:00,-1.4,-13.6,30.88,WNW,287,5.0,5.0,55,0.00,,CLR,0.00,0.00,VWS V14.01,2014-01-28 02:53:00,
2014-01-27 20:58:00,-1.4,-13.6,30.88,WNW,286,3.0,6.0,55,0.00,,CLR,0.00,0.00,VWS V14.01,2014-01-28 02:58:00,
2014-01-27 21:03:00,-1.6,-13.8,30.88,WNW,298,5.0,9.0,55,0.00,,CLR,0.00,0.00,VWS V14.01,2014-01-28 03:03:00,
2014-01-27 21:08:00,-1.6,-13.8,30.88,WNW,296,0.0,5.0,55,0.00,,CLR,0.00,0.00,VWS V14.01,2014-01-28 03:08:00,
2014-01-27 21:13:00,-1.6,-13.8,30.89,WNW,291,1.0,5.0,55,0.00,,CLR,0.00,0.00,VWS V14.01,2014-01-28 03:13:00,
2014-01-27 21:18:00,-1.6,-13.8,30.89,WNW,292,1.0,2.0,55,0.00,,CLR,0.00,0.00,VWS V14.01,2014-01-28 03:18:00,
2014-01-27 21:23:00,-1.8,-14.0,30.89,West,267,3.0,5.0,55,0.00,,CLR,0.00,0.00,VWS V14.01,2014-01-28 03:23:00,
2014-01-27 21:28:00,-1.8,-14.0,30.89,West,270,3.0,4.0,55,0.00,,CLR,0.00,0.00,VWS V14.01,2014-01-28 03:28:00,
2014-01-27 21:33:00,-1.8,-14.0,30.90,West,260,2.0,6.0,55,0.00,,CLR,0.00,0.00,VWS V14.01,2014-01-28 03:33:00,
2014-01-27 21:38:00,-1.8,-13.7,30.90,West,261,4.0,4.0,56,0.00,,CLR,0.00,0.00,VWS V14.01,2014-01-28 03:38:00,
2014-01-27 21:43:00,-2.0,-13.8,30.89,West,262,3.0,6.0,56,0.00,,CLR,0.00,0.00,VWS V14.01,2014-01-28 03:43:00,
2014-01-27 21:48:00,-2.0,-13.8,30.89,West,262,1.0,4.0,56,0.00,,CLR,0.00,0.00,VWS V14.01,2014-01-28 03:48:00,
2014-01-27 21:53:00,-2.0,-13.8,30.89,West,262,1.0,2.0,56,0.00,,CLR,0.00,0.00,VWS V14.01,2014-01-28 03:53:00,
2014-01-27 21:59:00,-2.2,-13.7,30.89,West,262,1.0,3.0,57,0.00,,CLR,0.00,0.00,VWS V14.01,2014-01-28 03:59:00,
2014-01-27 22:04:00,-2.2,-13.7,30.89,West,262,2.0,3.0,57,0.00,,CLR,0.00,0.00,VWS V14.01,2014-01-28 04:04:00,
2014-01-27 22:09:00,-2.2,-13.3,30.89,West,262,1.0,1.0,58,0.00,,CLR,0.00,0.00,VWS V14.01,2014-01-28 04:09:00,
2014-01-27 22:14:00,-2.2,-13.3,30.90,West,262,0.0,4.0,58,0.00,,CLR,0.00,0.00,VWS V14.01,2014-01-28 04:14:00,
2014-01-27 22:19:00,-2.4,-13.5,30.90,West,262,2.0,3.0,58,0.00,,CLR,0.00,0.00,VWS V14.01,2014-01-28 04:19:00,
2014-01-27 22:24:00,-2.4,-13.5,30.90,West,268,5.0,6.0,58,0.00,,CLR,0.00,0.00,VWS V14.01,2014-01-28 04:24:00,
2014-01-27 22:29:00,-2.4,-13.5,30.90,West,267,0.0,4.0,58,0.00,,CLR,0.00,0.00,VWS V14.01,2014-01-28 04:29:00,
2014-01-27 22:34:00,-2.4,-13.5,30.90,West,267,2.0,2.0,58,0.00,,CLR,0.00,0.00,VWS V14.01,2014-01-28 04:34:00,
2014-01-27 22:39:00,-2.4,-13.2,30.90,West,267,0.0,7.0,59,0.00,,CLR,0.00,0.00,VWS V14.01,2014-01-28 04:39:00,
2014-01-27 22:44:00,-2.4,-13.2,30.90,West,265,1.0,3.0,59,0.00,,CLR,0.00,0.00,VWS V14.01,2014-01-28 04:44:00,
2014-01-27 22:49:00,-2.4,-13.2,30.90,West,281,5.0,6.0,59,0.00,,CLR,0.00,0.00,VWS V14.01,2014-01-28 04:49:00,
2014-01-27 22:55:00,-2.4,-13.2,30.91,West,281,1.0,6.0,59,0.00,,CLR,0.00,0.00,VWS V14.01,2014-01-28 04:55:00,
2014-01-27 23:00:00,-2.4,-12.9,30.91,West,280,1.0,3.0,60,0.00,,CLR,0.00,0.00,VWS V14.01,2014-01-28 05:00:00,
2014-01-27 23:01:00,-2.4,-12.9,30.91,West,280,3.0,4.0,60,0.00,,CLR,0.00,0.00,VWS V14.01,2014-01-28 05:01:00,
2014-01-27 23:04:00,-2.4,-12.9,30.91,West,280,2.0,4.0,60,0.00,,CLR,0.00,0.00,VWS V14.01,2014-01-28 05:04:00,
2014-01-27 23:09:00,-2.4,-12.9,30.91,West,276,2.0,4.0,60,0.00,,CLR,0.00,0.00,VWS V14.01,2014-01-28 05:09:00,
2014-01-27 23:11:00,-2.4,-12.9,30.91,WSW,252,2.0,7.0,60,0.00,,CLR,0.00,0.00,VWS V14.01,2014-01-28 05:11:00,
2014-01-27 23:12:00,-2.4,-12.9,30.91,WSW,251,1.0,3.0,60,0.00,,CLR,0.00,0.00,VWS V14.01,2014-01-28 05:12:00,
2014-01-27 23:17:00,-2.4,-12.5,30.92,WSW,250,2.0,4.0,61,0.00,,CLR,0.00,0.00,VWS V14.01,2014-01-28 05:17:00,
2014-01-27 23:22:00,-2.4,-12.5,30.92,WSW,249,2.0,4.0,61,0.00,,CLR,0.00,0.00,VWS V14.01,2014-01-28 05:22:00,
2014-01-27 23:27:00,-2.4,-12.5,30.92,WSW,249,1.0,4.0,61,0.00,,CLR,0.00,0.00,VWS V14.01,2014-01-28 05:27:00,
2014-01-27 23:32:00,-2.4,-12.9,30.92,WSW,250,2.0,3.0,60,0.00,,CLR,0.00,0.00,VWS V14.01,2014-01-28 05:32:00,
2014-01-27 23:37:00,-2.4,-12.5,30.92,WSW,250,2.0,5.0,61,0.00,,CLR,0.00,0.00,VWS V14.01,2014-01-28 05:37:00,
2014-01-27 23:43:00,-2.4,-12.9,30.91,WSW,249,3.0,4.0,60,0.00,,CLR,0.00,0.00,VWS V14.01,2014-01-28 05:43:00,
2014-01-27 23:48:00,-2.4,-12.9,30.91,WSW,252,3.0,4.0,60,0.00,,CLR,0.00,0.00,VWS V14.01,2014-01-28 05:48:00,
2014-01-27 23:53:00,-2.4,-12.9,30.91,WNW,286,2.0,5.0,60,0.00,,CLR,0.00,0.00,VWS V14.01,2014-01-28 05:53:00,
2014-01-27 23:58:00,-2.4,-12.9,30.91,WNW,295,4.0,4.0,60,0.00,,CLR,0.00,0.00,VWS V14.01,2014-01-28 05:58:00,